sensor_id;sensor_type;location;lat;lon;timestamp;pressure;altitude;pressure_sealevel;temperature;humidity
8140;BME280;4111;50.972;7.072;2022-07-06T00:00:05;101953.38;;;18.95;57.02
8140;BME280;4111;50.972;7.072;2022-07-06T00:02:32;101951.19;;;19.17;56.50
8140;BME280;4111;50.972;7.072;2022-07-06T00:04:59;101959.72;;;19.06;55.60
8140;BME280;4111;50.972;7.072;2022-07-06T00:07:25;101955.28;;;18.84;55.97
8140;BME280;4111;50.972;7.072;2022-07-06T00:09:52;101963.72;;;18.62;56.40
8140;BME280;4111;50.972;7.072;2022-07-06T00:12:18;101953.81;;;18.51;57.05
8140;BME280;4111;50.972;7.072;2022-07-06T00:14:45;101957.09;;;18.42;57.46
8140;BME280;4111;50.972;7.072;2022-07-06T00:17:11;101955.41;;;18.41;57.91
8140;BME280;4111;50.972;7.072;2022-07-06T00:19:38;101953.31;;;18.74;57.82
8140;BME280;4111;50.972;7.072;2022-07-06T00:22:04;101962.47;;;19.16;57.03
8140;BME280;4111;50.972;7.072;2022-07-06T00:24:31;101966.84;;;19.01;56.72
8140;BME280;4111;50.972;7.072;2022-07-06T00:26:57;101964.88;;;18.76;57.43
8140;BME280;4111;50.972;7.072;2022-07-06T00:29:24;101963.72;;;18.57;58.00
8140;BME280;4111;50.972;7.072;2022-07-06T00:31:50;101961.47;;;18.38;58.11
8140;BME280;4111;50.972;7.072;2022-07-06T00:34:17;101963.03;;;18.19;58.27
8140;BME280;4111;50.972;7.072;2022-07-06T00:36:43;101960.78;;;18.11;59.05
8140;BME280;4111;50.972;7.072;2022-07-06T00:39:09;101963.72;;;18.62;58.42
8140;BME280;4111;50.972;7.072;2022-07-06T00:41:36;101960.44;;;18.75;57.76
8140;BME280;4111;50.972;7.072;2022-07-06T00:44:07;101967.03;;;18.59;57.46
8140;BME280;4111;50.972;7.072;2022-07-06T00:46:33;101972.69;;;18.32;57.70
8140;BME280;4111;50.972;7.072;2022-07-06T00:49:00;101970.44;;;18.18;58.27
8140;BME280;4111;50.972;7.072;2022-07-06T00:51:31;101974.97;;;17.92;58.51
8140;BME280;4111;50.972;7.072;2022-07-06T00:54:00;101964.97;;;17.81;59.05
8140;BME280;4111;50.972;7.072;2022-07-06T00:56:29;101970.97;;;17.68;59.34
8140;BME280;4111;50.972;7.072;2022-07-06T00:58:59;101967.88;;;17.59;59.67
8140;BME280;4111;50.972;7.072;2022-07-06T01:01:26;101970.41;;;17.66;60.00
8140;BME280;4111;50.972;7.072;2022-07-06T01:03:54;101972.28;;;17.97;59.52
8140;BME280;4111;50.972;7.072;2022-07-06T01:06:20;101975.03;;;17.97;59.39
8140;BME280;4111;50.972;7.072;2022-07-06T01:08:47;101972.66;;;17.79;59.36
8140;BME280;4111;50.972;7.072;2022-07-06T01:11:14;101973.09;;;17.60;59.69
8140;BME280;4111;50.972;7.072;2022-07-06T01:13:42;101968.59;;;17.44;60.04
8140;BME280;4111;50.972;7.072;2022-07-06T01:16:08;101974.53;;;17.31;60.90
8140;BME280;4111;50.972;7.072;2022-07-06T01:18:35;101971.44;;;17.22;60.87
8140;BME280;4111;50.972;7.072;2022-07-06T01:21:13;101964.59;;;17.24;60.85
8140;BME280;4111;50.972;7.072;2022-07-06T01:23:42;101967.03;;;17.21;61.19
8140;BME280;4111;50.972;7.072;2022-07-06T01:26:10;101964.66;;;17.35;61.39
8140;BME280;4111;50.972;7.072;2022-07-06T01:28:37;101964.91;;;17.66;60.96
8140;BME280;4111;50.972;7.072;2022-07-06T01:31:04;101963.78;;;17.67;60.57
8140;BME280;4111;50.972;7.072;2022-07-06T01:33:30;101968.91;;;17.48;60.48
8140;BME280;4111;50.972;7.072;2022-07-06T01:35:57;101980.00;;;17.31;60.98
8140;BME280;4111;50.972;7.072;2022-07-06T01:38:24;101968.91;;;17.15;61.59
8140;BME280;4111;50.972;7.072;2022-07-06T01:40:50;101965.81;;;17.07;61.96
8140;BME280;4111;50.972;7.072;2022-07-06T01:43:17;101964.38;;;17.04;62.11
8140;BME280;4111;50.972;7.072;2022-07-06T01:45:43;101974.75;;;16.97;62.13
8140;BME280;4111;50.972;7.072;2022-07-06T01:48:10;101965.16;;;16.94;62.15
8140;BME280;4111;50.972;7.072;2022-07-06T01:50:36;101971.47;;;16.95;62.12
8140;BME280;4111;50.972;7.072;2022-07-06T01:53:03;101963.31;;;17.05;62.38
8140;BME280;4111;50.972;7.072;2022-07-06T01:55:29;101971.88;;;17.14;62.21
8140;BME280;4111;50.972;7.072;2022-07-06T01:57:56;101968.47;;;16.96;62.45
8140;BME280;4111;50.972;7.072;2022-07-06T02:00:22;101971.88;;;16.81;62.86
8140;BME280;4111;50.972;7.072;2022-07-06T02:02:49;101973.69;;;16.76;63.30
8140;BME280;4111;50.972;7.072;2022-07-06T02:05:15;101967.28;;;16.65;63.72
8140;BME280;4111;50.972;7.072;2022-07-06T02:07:42;101966.13;;;16.61;63.74
8140;BME280;4111;50.972;7.072;2022-07-06T02:10:08;101972.13;;;16.58;63.55
8140;BME280;4111;50.972;7.072;2022-07-06T02:12:35;101967.66;;;16.52;63.91
8140;BME280;4111;50.972;7.072;2022-07-06T02:15:01;101971.63;;;16.61;64.16
8140;BME280;4111;50.972;7.072;2022-07-06T02:17:27;101971.00;;;16.81;63.76
8140;BME280;4111;50.972;7.072;2022-07-06T02:19:54;101977.13;;;16.88;63.47
8140;BME280;4111;50.972;7.072;2022-07-06T02:22:21;101967.59;;;16.69;63.75
8140;BME280;4111;50.972;7.072;2022-07-06T02:24:48;101969.94;;;16.60;63.95
8140;BME280;4111;50.972;7.072;2022-07-06T02:27:14;101982.53;;;16.56;64.15
8140;BME280;4111;50.972;7.072;2022-07-06T02:29:41;101978.28;;;16.43;64.62
8140;BME280;4111;50.972;7.072;2022-07-06T02:32:07;101973.03;;;16.41;64.46
8140;BME280;4111;50.972;7.072;2022-07-06T02:34:34;101979.78;;;16.34;65.23
8140;BME280;4111;50.972;7.072;2022-07-06T02:37:01;101978.06;;;16.28;65.40
8140;BME280;4111;50.972;7.072;2022-07-06T02:39:27;101974.75;;;16.25;65.14
8140;BME280;4111;50.972;7.072;2022-07-06T02:41:53;101970.56;;;16.18;65.87
8140;BME280;4111;50.972;7.072;2022-07-06T02:44:20;101979.09;;;16.21;65.69
8140;BME280;4111;50.972;7.072;2022-07-06T02:46:46;101982.66;;;16.44;65.41
8140;BME280;4111;50.972;7.072;2022-07-06T02:49:13;101981.88;;;16.49;65.16
8140;BME280;4111;50.972;7.072;2022-07-06T02:51:39;101980.38;;;16.36;65.43
8140;BME280;4111;50.972;7.072;2022-07-06T02:54:06;101974.75;;;16.25;66.08
8140;BME280;4111;50.972;7.072;2022-07-06T02:56:32;101980.41;;;16.19;65.92
8140;BME280;4111;50.972;7.072;2022-07-06T02:58:59;101990.41;;;16.08;66.40
8140;BME280;4111;50.972;7.072;2022-07-06T03:01:26;101985.63;;;15.98;66.96
8140;BME280;4111;50.972;7.072;2022-07-06T03:03:52;101986.13;;;15.95;67.25
8140;BME280;4111;50.972;7.072;2022-07-06T03:06:19;101985.63;;;15.98;67.41
8140;BME280;4111;50.972;7.072;2022-07-06T03:08:45;101979.34;;;16.42;67.02
8140;BME280;4111;50.972;7.072;2022-07-06T03:11:12;101976.72;;;16.52;66.40
8140;BME280;4111;50.972;7.072;2022-07-06T03:13:38;101980.56;;;16.29;66.46
8140;BME280;4111;50.972;7.072;2022-07-06T03:16:05;101981.25;;;16.19;66.66
8140;BME280;4111;50.972;7.072;2022-07-06T03:18:31;101986.41;;;16.16;66.84
8140;BME280;4111;50.972;7.072;2022-07-06T03:20:58;101991.91;;;16.16;66.84
8140;BME280;4111;50.972;7.072;2022-07-06T03:23:24;101994.50;;;16.05;67.11
8140;BME280;4111;50.972;7.072;2022-07-06T03:25:51;101997.75;;;16.02;67.21
8140;BME280;4111;50.972;7.072;2022-07-06T03:28:17;101990.59;;;16.01;67.39
8140;BME280;4111;50.972;7.072;2022-07-06T03:30:44;101989.44;;;15.97;67.53
8140;BME280;4111;50.972;7.072;2022-07-06T03:33:10;102002.63;;;16.17;67.57
8140;BME280;4111;50.972;7.072;2022-07-06T03:35:36;101990.91;;;16.05;67.54
8140;BME280;4111;50.972;7.072;2022-07-06T03:38:03;101993.75;;;15.93;67.78
8140;BME280;4111;50.972;7.072;2022-07-06T03:40:30;101994.91;;;15.97;67.98
8140;BME280;4111;50.972;7.072;2022-07-06T03:42:56;101995.91;;;15.91;67.92
8140;BME280;4111;50.972;7.072;2022-07-06T03:45:23;102000.78;;;15.84;68.30
8140;BME280;4111;50.972;7.072;2022-07-06T03:47:49;101994.97;;;15.80;68.58
8140;BME280;4111;50.972;7.072;2022-07-06T03:50:16;101998.59;;;15.86;68.31
8140;BME280;4111;50.972;7.072;2022-07-06T03:52:42;102002.34;;;15.80;68.52
8140;BME280;4111;50.972;7.072;2022-07-06T03:55:10;102002.84;;;15.77;69.05
8140;BME280;4111;50.972;7.072;2022-07-06T03:57:38;102001.25;;;15.64;69.29
8140;BME280;4111;50.972;7.072;2022-07-06T04:00:07;101997.41;;;15.65;69.64
8140;BME280;4111;50.972;7.072;2022-07-06T04:02:34;102006.06;;;15.91;69.26
8140;BME280;4111;50.972;7.072;2022-07-06T04:05:01;101997.38;;;16.16;68.66
8140;BME280;4111;50.972;7.072;2022-07-06T04:07:27;102002.19;;;16.09;68.37
8140;BME280;4111;50.972;7.072;2022-07-06T04:09:54;102002.25;;;15.92;68.47
8140;BME280;4111;50.972;7.072;2022-07-06T04:12:20;102006.25;;;15.84;68.74
8140;BME280;4111;50.972;7.072;2022-07-06T04:14:47;102006.69;;;15.76;69.15
8140;BME280;4111;50.972;7.072;2022-07-06T04:17:13;102012.84;;;15.71;69.35
8140;BME280;4111;50.972;7.072;2022-07-06T04:19:58;102005.41;;;15.66;69.57
8140;BME280;4111;50.972;7.072;2022-07-06T04:22:26;102006.88;;;15.57;70.33
8140;BME280;4111;50.972;7.072;2022-07-06T04:24:52;102007.56;;;15.64;70.14
8140;BME280;4111;50.972;7.072;2022-07-06T04:27:19;102013.50;;;15.61;70.33
8140;BME280;4111;50.972;7.072;2022-07-06T04:29:46;102024.47;;;15.61;70.61
8140;BME280;4111;50.972;7.072;2022-07-06T04:32:12;102014.38;;;15.96;70.47
8140;BME280;4111;50.972;7.072;2022-07-06T04:34:38;102018.94;;;16.29;69.59
8140;BME280;4111;50.972;7.072;2022-07-06T04:37:05;102015.47;;;16.17;69.50
8140;BME280;4111;50.972;7.072;2022-07-06T04:39:31;102021.47;;;15.97;69.59
8140;BME280;4111;50.972;7.072;2022-07-06T04:41:58;102025.31;;;15.96;69.87
8140;BME280;4111;50.972;7.072;2022-07-06T04:44:25;102025.91;;;15.81;69.45
8140;BME280;4111;50.972;7.072;2022-07-06T04:46:51;102024.84;;;15.82;69.42
8140;BME280;4111;50.972;7.072;2022-07-06T04:49:17;102023.09;;;15.76;70.36
8140;BME280;4111;50.972;7.072;2022-07-06T04:51:44;102025.84;;;15.76;70.67
8140;BME280;4111;50.972;7.072;2022-07-06T04:54:10;102025.00;;;15.75;70.97
8140;BME280;4111;50.972;7.072;2022-07-06T04:56:37;102028.94;;;15.67;71.32
8140;BME280;4111;50.972;7.072;2022-07-06T04:59:03;102027.50;;;15.77;71.49
8140;BME280;4111;50.972;7.072;2022-07-06T05:01:30;102027.81;;;15.80;71.46
8140;BME280;4111;50.972;7.072;2022-07-06T05:03:57;102030.94;;;16.06;71.33
8140;BME280;4111;50.972;7.072;2022-07-06T05:06:23;102038.03;;;16.24;71.05
8140;BME280;4111;50.972;7.072;2022-07-06T05:08:49;102029.75;;;16.19;70.51
8140;BME280;4111;50.972;7.072;2022-07-06T05:11:16;102032.91;;;16.11;70.32
8140;BME280;4111;50.972;7.072;2022-07-06T05:13:42;102030.41;;;16.09;70.64
8140;BME280;4111;50.972;7.072;2022-07-06T05:16:09;102035.59;;;16.05;70.22
8140;BME280;4111;50.972;7.072;2022-07-06T05:18:36;102031.88;;;15.95;70.09
8140;BME280;4111;50.972;7.072;2022-07-06T05:21:02;102035.44;;;15.95;70.40
8140;BME280;4111;50.972;7.072;2022-07-06T05:23:29;102029.94;;;15.95;70.88
8140;BME280;4111;50.972;7.072;2022-07-06T05:25:55;102036.09;;;16.02;70.52
8140;BME280;4111;50.972;7.072;2022-07-06T05:28:22;102037.25;;;16.06;70.28
8140;BME280;4111;50.972;7.072;2022-07-06T05:30:49;102040.56;;;16.09;70.24
8140;BME280;4111;50.972;7.072;2022-07-06T05:33:16;102045.47;;;16.06;70.06
8140;BME280;4111;50.972;7.072;2022-07-06T05:35:42;102043.88;;;16.11;70.68
8140;BME280;4111;50.972;7.072;2022-07-06T05:38:18;102044.00;;;16.21;70.39
8140;BME280;4111;50.972;7.072;2022-07-06T05:40:45;102028.22;;;16.28;70.69
8140;BME280;4111;50.972;7.072;2022-07-06T05:43:11;102033.78;;;16.33;70.72
8140;BME280;4111;50.972;7.072;2022-07-06T05:45:38;102035.44;;;16.34;70.51
8140;BME280;4111;50.972;7.072;2022-07-06T05:48:05;102026.84;;;16.48;70.49
8140;BME280;4111;50.972;7.072;2022-07-06T05:50:50;102027.34;;;16.44;70.07
8140;BME280;4111;50.972;7.072;2022-07-06T05:53:17;102019.19;;;16.50;70.67
8140;BME280;4111;50.972;7.072;2022-07-06T05:55:46;102023.28;;;16.69;69.68
8140;BME280;4111;50.972;7.072;2022-07-06T05:58:14;102038.28;;;16.83;69.67
8140;BME280;4111;50.972;7.072;2022-07-06T06:00:40;102038.34;;;16.89;69.34
8140;BME280;4111;50.972;7.072;2022-07-06T06:03:07;102041.75;;;17.01;69.27
8140;BME280;4111;50.972;7.072;2022-07-06T06:05:34;102044.50;;;17.01;68.67
8140;BME280;4111;50.972;7.072;2022-07-06T06:08:00;102046.72;;;17.04;68.32
8140;BME280;4111;50.972;7.072;2022-07-06T06:10:27;102048.16;;;17.12;68.38
8140;BME280;4111;50.972;7.072;2022-07-06T06:12:54;102049.03;;;17.12;67.66
8140;BME280;4111;50.972;7.072;2022-07-06T06:15:21;102051.22;;;17.15;67.56
8140;BME280;4111;50.972;7.072;2022-07-06T06:17:47;102046.84;;;17.14;67.44
8140;BME280;4111;50.972;7.072;2022-07-06T06:20:14;102051.31;;;17.25;67.36
8140;BME280;4111;50.972;7.072;2022-07-06T06:25:12;102055.31;;;17.40;67.20
8140;BME280;4111;50.972;7.072;2022-07-06T06:27:39;102058.63;;;17.42;66.53
8140;BME280;4111;50.972;7.072;2022-07-06T06:30:05;102058.75;;;17.25;66.67
8140;BME280;4111;50.972;7.072;2022-07-06T06:32:32;102051.06;;;17.27;66.71
8140;BME280;4111;50.972;7.072;2022-07-06T06:34:58;102052.59;;;17.40;66.87
8140;BME280;4111;50.972;7.072;2022-07-06T06:37:25;102051.28;;;17.48;66.13
8140;BME280;4111;50.972;7.072;2022-07-06T06:39:51;102049.59;;;17.47;66.25
8140;BME280;4111;50.972;7.072;2022-07-06T06:42:18;102050.22;;;17.54;66.11
8140;BME280;4111;50.972;7.072;2022-07-06T06:44:44;102057.16;;;17.61;65.89
8140;BME280;4111;50.972;7.072;2022-07-06T06:47:11;102054.25;;;17.73;65.80
8140;BME280;4111;50.972;7.072;2022-07-06T06:49:37;102053.94;;;17.70;65.72
8140;BME280;4111;50.972;7.072;2022-07-06T06:52:04;102056.28;;;17.88;65.50
8140;BME280;4111;50.972;7.072;2022-07-06T06:54:50;102059.41;;;18.02;65.19
8140;BME280;4111;50.972;7.072;2022-07-06T06:57:17;102052.59;;;18.10;64.54
8140;BME280;4111;50.972;7.072;2022-07-06T06:59:43;102055.66;;;18.18;64.23
8140;BME280;4111;50.972;7.072;2022-07-06T07:02:10;102056.50;;;18.19;64.04
8140;BME280;4111;50.972;7.072;2022-07-06T07:04:37;102062.28;;;18.22;63.74
8140;BME280;4111;50.972;7.072;2022-07-06T07:07:03;102065.84;;;18.18;63.61
8140;BME280;4111;50.972;7.072;2022-07-06T07:09:30;102073.47;;;18.06;63.58
8140;BME280;4111;50.972;7.072;2022-07-06T07:11:56;102062.97;;;18.02;63.66
8140;BME280;4111;50.972;7.072;2022-07-06T07:14:24;102061.69;;;18.15;63.84
8140;BME280;4111;50.972;7.072;2022-07-06T07:16:50;102063.13;;;18.23;63.47
8140;BME280;4111;50.972;7.072;2022-07-06T07:19:16;102058.75;;;18.27;63.39
8140;BME280;4111;50.972;7.072;2022-07-06T07:21:43;102063.66;;;18.20;62.39
8140;BME280;4111;50.972;7.072;2022-07-06T07:24:09;102068.13;;;18.36;62.70
8140;BME280;4111;50.972;7.072;2022-07-06T07:26:36;102075.59;;;18.41;62.09
8140;BME280;4111;50.972;7.072;2022-07-06T07:29:03;102072.06;;;18.56;61.50
8140;BME280;4111;50.972;7.072;2022-07-06T07:31:30;102067.91;;;18.43;61.03
8140;BME280;4111;50.972;7.072;2022-07-06T07:33:56;102065.47;;;18.52;61.16
8140;BME280;4111;50.972;7.072;2022-07-06T07:36:26;102063.31;;;18.64;60.83
8140;BME280;4111;50.972;7.072;2022-07-06T07:38:52;102065.56;;;18.72;60.59
8140;BME280;4111;50.972;7.072;2022-07-06T07:41:19;102069.97;;;18.68;60.42
8140;BME280;4111;50.972;7.072;2022-07-06T07:43:45;102068.28;;;18.67;60.16
8140;BME280;4111;50.972;7.072;2022-07-06T07:46:12;102067.28;;;18.89;60.67
8140;BME280;4111;50.972;7.072;2022-07-06T07:48:38;102070.59;;;18.86;59.40
8140;BME280;4111;50.972;7.072;2022-07-06T07:51:05;102070.06;;;18.99;59.28
8140;BME280;4111;50.972;7.072;2022-07-06T07:53:31;102067.09;;;19.16;59.38
8140;BME280;4111;50.972;7.072;2022-07-06T07:55:58;102062.94;;;19.08;58.26
8140;BME280;4111;50.972;7.072;2022-07-06T07:58:24;102068.44;;;18.98;58.29
8140;BME280;4111;50.972;7.072;2022-07-06T08:00:52;102066.25;;;19.10;57.94
8140;BME280;4111;50.972;7.072;2022-07-06T08:03:19;102059.94;;;19.10;58.03
8140;BME280;4111;50.972;7.072;2022-07-06T08:05:45;102061.84;;;19.04;58.09
8140;BME280;4111;50.972;7.072;2022-07-06T08:08:14;102068.97;;;18.95;58.23
8140;BME280;4111;50.972;7.072;2022-07-06T08:10:41;102069.53;;;18.92;58.17
8140;BME280;4111;50.972;7.072;2022-07-06T08:13:27;102068.31;;;18.77;58.08
8140;BME280;4111;50.972;7.072;2022-07-06T08:15:54;102073.25;;;18.70;58.15
8140;BME280;4111;50.972;7.072;2022-07-06T08:18:20;102068.28;;;18.67;58.70
8140;BME280;4111;50.972;7.072;2022-07-06T08:20:48;102077.94;;;18.75;59.06
8140;BME280;4111;50.972;7.072;2022-07-06T08:23:34;102065.28;;;18.69;59.63
8140;BME280;4111;50.972;7.072;2022-07-06T08:26:02;102069.97;;;18.68;59.95
8140;BME280;4111;50.972;7.072;2022-07-06T08:28:29;102074.34;;;18.69;60.68
8140;BME280;4111;50.972;7.072;2022-07-06T08:30:56;102072.16;;;18.66;60.47
8140;BME280;4111;50.972;7.072;2022-07-06T08:33:22;102074.63;;;18.68;61.26
8140;BME280;4111;50.972;7.072;2022-07-06T08:35:50;102075.97;;;18.65;60.67
8140;BME280;4111;50.972;7.072;2022-07-06T08:38:16;102064.72;;;18.72;60.47
8140;BME280;4111;50.972;7.072;2022-07-06T08:40:44;102065.56;;;18.72;60.25
8140;BME280;4111;50.972;7.072;2022-07-06T08:43:12;102067.75;;;18.70;59.94
8140;BME280;4111;50.972;7.072;2022-07-06T08:45:41;102070.31;;;18.34;60.32
8140;BME280;4111;50.972;7.072;2022-07-06T08:48:10;102062.53;;;18.69;60.16
8140;BME280;4111;50.972;7.072;2022-07-06T08:50:37;102067.50;;;18.77;59.67
8140;BME280;4111;50.972;7.072;2022-07-06T08:53:04;102058.94;;;18.68;59.37
8140;BME280;4111;50.972;7.072;2022-07-06T08:55:32;102062.75;;;18.57;59.39
8140;BME280;4111;50.972;7.072;2022-07-06T08:57:59;102066.06;;;18.64;59.16
8140;BME280;4111;50.972;7.072;2022-07-06T09:00:26;102066.09;;;18.69;59.42
8140;BME280;4111;50.972;7.072;2022-07-06T09:02:53;102065.38;;;18.84;58.59
8140;BME280;4111;50.972;7.072;2022-07-06T09:05:23;102064.88;;;19.02;58.34
8140;BME280;4111;50.972;7.072;2022-07-06T09:07:51;102066.03;;;19.37;57.88
8140;BME280;4111;50.972;7.072;2022-07-06T09:10:26;102066.59;;;19.65;56.83
8140;BME280;4111;50.972;7.072;2022-07-06T09:12:53;102059.97;;;19.66;56.50
8140;BME280;4111;50.972;7.072;2022-07-06T09:15:28;102064.09;;;19.58;55.18
8140;BME280;4111;50.972;7.072;2022-07-06T09:17:56;102059.44;;;19.64;54.99
8140;BME280;4111;50.972;7.072;2022-07-06T09:20:24;102059.19;;;19.76;53.46
8140;BME280;4111;50.972;7.072;2022-07-06T09:22:57;102058.63;;;19.79;53.85
8140;BME280;4111;50.972;7.072;2022-07-06T09:25:25;102066.59;;;19.65;54.00
8140;BME280;4111;50.972;7.072;2022-07-06T09:27:52;102063.28;;;19.58;53.97
8140;BME280;4111;50.972;7.072;2022-07-06T09:30:22;102067.16;;;19.57;53.85
8140;BME280;4111;50.972;7.072;2022-07-06T09:32:53;102058.88;;;19.41;54.24
8140;BME280;4111;50.972;7.072;2022-07-06T09:38:14;102062.44;;;19.42;55.24
8140;BME280;4111;50.972;7.072;2022-07-06T09:40:43;102061.63;;;19.41;54.95
8140;BME280;4111;50.972;7.072;2022-07-06T09:43:13;102058.03;;;19.41;54.90
8140;BME280;4111;50.972;7.072;2022-07-06T09:45:45;102059.97;;;19.51;55.12
8140;BME280;4111;50.972;7.072;2022-07-06T09:48:14;102062.47;;;19.57;55.06
8140;BME280;4111;50.972;7.072;2022-07-06T09:50:43;102060.81;;;19.51;54.15
8140;BME280;4111;50.972;7.072;2022-07-06T09:53:11;102063.84;;;19.50;53.73
8140;BME280;4111;50.972;7.072;2022-07-06T09:55:37;102055.84;;;19.48;53.46
8140;BME280;4111;50.972;7.072;2022-07-06T09:58:04;102054.72;;;19.65;53.51
8140;BME280;4111;50.972;7.072;2022-07-06T10:00:31;102053.91;;;19.64;53.18
8140;BME280;4111;50.972;7.072;2022-07-06T10:02:57;102059.16;;;19.50;53.53
8140;BME280;4111;50.972;7.072;2022-07-06T10:05:25;102062.44;;;19.42;54.18
8140;BME280;4111;50.972;7.072;2022-07-06T10:08:00;102061.91;;;19.45;54.43
8140;BME280;4111;50.972;7.072;2022-07-06T10:10:28;102070.44;;;19.49;54.31
8140;BME280;4111;50.972;7.072;2022-07-06T10:12:56;102071.00;;;19.51;54.12
8140;BME280;4111;50.972;7.072;2022-07-06T10:15:27;102063.56;;;19.46;54.53
8140;BME280;4111;50.972;7.072;2022-07-06T10:18:00;102070.16;;;19.60;54.03
8140;BME280;4111;50.972;7.072;2022-07-06T10:20:29;102068.28;;;19.71;54.10
8140;BME280;4111;50.972;7.072;2022-07-06T10:23:00;102066.34;;;19.72;53.24
8140;BME280;4111;50.972;7.072;2022-07-06T10:25:28;102066.34;;;19.82;53.29
8140;BME280;4111;50.972;7.072;2022-07-06T10:27:55;102065.75;;;20.06;52.87
8140;BME280;4111;50.972;7.072;2022-07-06T10:30:22;102057.50;;;20.11;51.94
8140;BME280;4111;50.972;7.072;2022-07-06T10:32:50;102062.16;;;20.20;51.73
8140;BME280;4111;50.972;7.072;2022-07-06T10:35:20;102060.50;;;20.19;51.48
8140;BME280;4111;50.972;7.072;2022-07-06T10:38:06;102062.13;;;20.26;51.56
8140;BME280;4111;50.972;7.072;2022-07-06T10:40:42;102050.25;;;20.35;51.14
8140;BME280;4111;50.972;7.072;2022-07-06T10:43:38;102053.56;;;20.32;51.47
8140;BME280;4111;50.972;7.072;2022-07-06T10:46:08;102054.56;;;20.57;51.42
8140;BME280;4111;50.972;7.072;2022-07-06T10:48:44;102051.84;;;20.62;51.00
8140;BME280;4111;50.972;7.072;2022-07-06T10:51:12;102047.69;;;20.59;50.83
8140;BME280;4111;50.972;7.072;2022-07-06T10:53:40;102050.72;;;20.53;50.69
8140;BME280;4111;50.972;7.072;2022-07-06T10:56:10;102051.84;;;20.52;50.33
8140;BME280;4111;50.972;7.072;2022-07-06T10:58:48;102045.75;;;20.55;49.68
8140;BME280;4111;50.972;7.072;2022-07-06T11:01:17;102045.19;;;20.68;49.87
8140;BME280;4111;50.972;7.072;2022-07-06T11:06:19;102044.81;;;20.85;50.09
8140;BME280;4111;50.972;7.072;2022-07-06T11:08:58;102039.25;;;20.95;49.94
8140;BME280;4111;50.972;7.072;2022-07-06T11:16:26;102036.78;;;20.94;49.06
8140;BME280;4111;50.972;7.072;2022-07-06T11:19:13;102038.28;;;21.15;49.97
8140;BME280;4111;50.972;7.072;2022-07-06T11:21:49;102030.97;;;21.35;49.13
8140;BME280;4111;50.972;7.072;2022-07-06T11:24:20;102038.13;;;21.36;48.28
8140;BME280;4111;50.972;7.072;2022-07-06T11:26:49;102041.91;;;21.50;48.07
8140;BME280;4111;50.972;7.072;2022-07-06T11:29:17;102034.78;;;21.44;47.04
8140;BME280;4111;50.972;7.072;2022-07-06T11:31:45;102048.56;;;21.49;46.53
8140;BME280;4111;50.972;7.072;2022-07-06T11:34:17;102034.47;;;21.51;46.32
8140;BME280;4111;50.972;7.072;2022-07-06T11:36:44;102023.31;;;21.61;46.58
8140;BME280;4111;50.972;7.072;2022-07-06T11:39:12;102025.78;;;21.63;45.52
8140;BME280;4111;50.972;7.072;2022-07-06T11:41:38;102026.47;;;21.49;45.88
8140;BME280;4111;50.972;7.072;2022-07-06T11:44:05;102024.66;;;21.64;45.72
8140;BME280;4111;50.972;7.072;2022-07-06T11:46:35;102028.34;;;21.54;44.96
8140;BME280;4111;50.972;7.072;2022-07-06T11:49:05;102029.84;;;21.36;44.13
8140;BME280;4111;50.972;7.072;2022-07-06T11:51:39;102031.28;;;21.28;44.41
8140;BME280;4111;50.972;7.072;2022-07-06T11:54:10;102022.63;;;21.40;44.94
8140;BME280;4111;50.972;7.072;2022-07-06T11:56:38;102030.53;;;21.57;44.99
8140;BME280;4111;50.972;7.072;2022-07-06T11:59:11;102026.25;;;21.70;44.57
8140;BME280;4111;50.972;7.072;2022-07-06T12:01:37;102018.84;;;21.65;44.04
8140;BME280;4111;50.972;7.072;2022-07-06T12:04:07;102032.50;;;21.56;44.04
8140;BME280;4111;50.972;7.072;2022-07-06T12:06:36;102019.78;;;21.55;43.90
8140;BME280;4111;50.972;7.072;2022-07-06T12:09:09;102021.97;;;21.58;43.91
8140;BME280;4111;50.972;7.072;2022-07-06T12:11:36;102027.50;;;21.58;43.66
8140;BME280;4111;50.972;7.072;2022-07-06T12:14:13;102025.31;;;21.50;43.48
8140;BME280;4111;50.972;7.072;2022-07-06T12:16:40;102015.66;;;21.53;43.25
8140;BME280;4111;50.972;7.072;2022-07-06T12:19:07;102017.44;;;21.33;43.10
8140;BME280;4111;50.972;7.072;2022-07-06T12:21:34;102009.84;;;21.15;43.57
8140;BME280;4111;50.972;7.072;2022-07-06T12:24:06;102018.38;;;21.18;43.97
8140;BME280;4111;50.972;7.072;2022-07-06T12:26:39;102012.91;;;21.13;43.86
8140;BME280;4111;50.972;7.072;2022-07-06T12:29:10;102004.59;;;21.13;44.32
8140;BME280;4111;50.972;7.072;2022-07-06T12:34:29;102005.50;;;21.04;45.78
8140;BME280;4111;50.972;7.072;2022-07-06T12:37:10;101996.88;;;21.10;45.43
8140;BME280;4111;50.972;7.072;2022-07-06T12:39:44;101997.97;;;21.14;45.47
8140;BME280;4111;50.972;7.072;2022-07-06T12:42:13;101996.78;;;21.26;45.27
8140;BME280;4111;50.972;7.072;2022-07-06T12:44:50;101986.75;;;21.35;45.35
8140;BME280;4111;50.972;7.072;2022-07-06T12:47:19;101994.53;;;21.33;45.51
8140;BME280;4111;50.972;7.072;2022-07-06T12:49:47;101984.59;;;21.27;45.57
8140;BME280;4111;50.972;7.072;2022-07-06T12:52:15;101986.34;;;21.17;45.11
8140;BME280;4111;50.972;7.072;2022-07-06T12:54:47;101973.81;;;21.30;45.40
8140;BME280;4111;50.972;7.072;2022-07-06T12:57:21;101979.66;;;21.24;45.36
8140;BME280;4111;50.972;7.072;2022-07-06T12:59:58;101974.47;;;21.17;45.68
8140;BME280;4111;50.972;7.072;2022-07-06T13:05:16;101972.56;;;21.12;46.00
8140;BME280;4111;50.972;7.072;2022-07-06T13:07:46;101964.19;;;21.23;45.85
8140;BME280;4111;50.972;7.072;2022-07-06T13:10:14;101965.81;;;21.29;45.96
8140;BME280;4111;50.972;7.072;2022-07-06T13:12:41;101965.44;;;21.41;45.60
8140;BME280;4111;50.972;7.072;2022-07-06T13:15:09;101968.84;;;21.62;45.71
8140;BME280;4111;50.972;7.072;2022-07-06T13:17:35;101963.22;;;21.72;44.82
8140;BME280;4111;50.972;7.072;2022-07-06T13:20:05;101970.69;;;21.71;44.39
8140;BME280;4111;50.972;7.072;2022-07-06T13:22:32;101967.94;;;21.71;44.01
8140;BME280;4111;50.972;7.072;2022-07-06T13:24:59;101955.44;;;21.74;44.18
8140;BME280;4111;50.972;7.072;2022-07-06T13:27:25;101965.94;;;21.77;43.89
8140;BME280;4111;50.972;7.072;2022-07-06T13:29:52;101960.28;;;21.87;44.21
8140;BME280;4111;50.972;7.072;2022-07-06T13:32:18;101952.00;;;21.87;44.69